Time;durP1;ratioP1;P1;durP2;ratioP2;P2;SDS_P1;SDS_P2;PMS_P1;PMS_P2;Temp;Humidity;BMP_temperature;BMP_pressure;BME280_temperature;BME280_humidity;BME280_pressure;Samples;Min_cycle;Max_cycle;Signal;HPM_P1;HPM_P2
2023/04/13 00:01:09;;;;;;;3.63;1.90;;;5.20;1.00;;;;;;5057658;28;20466;-60
2023/04/13 00:03:37;;;;;;;2.90;1.97;;;5.20;1.00;;;;;;5057439;28;20469;-60
2023/04/13 00:06:09;;;;;;;2.23;1.70;;;5.20;1.00;;;;;;5057256;28;20505;-63
2023/04/13 00:08:38;;;;;;;5.27;1.70;;;5.20;1.00;;;;;;5057887;28;20466;-62
2023/04/13 00:11:06;;;;;;;3.53;1.73;;;5.20;1.00;;;;;;5058197;28;20466;-62
2023/04/13 00:13:41;;;;;;;2.80;1.87;;;5.20;1.00;;;;;;5057774;28;20535;-62
2023/04/13 00:16:10;;;;;;;3.30;1.50;;;5.20;1.00;;;;;;5057774;28;20462;-61
2023/04/13 00:18:37;;;;;;;2.70;1.67;;;5.30;1.00;;;;;;5058132;28;20772;-62
2023/04/13 00:21:04;;;;;;;4.83;1.70;;;5.30;1.00;;;;;;5057482;28;20565;-63
2023/04/13 00:23:32;;;;;;;2.87;1.60;;;5.30;1.00;;;;;;5057521;28;20508;-61
2023/04/13 00:26:01;;;;;;;2.97;1.70;;;5.40;1.00;;;;;;5057806;28;20549;-61
2023/04/13 00:28:28;;;;;;;3.50;1.80;;;5.50;1.00;;;;;;5057329;28;20462;-62
2023/04/13 00:30:56;;;;;;;2.57;1.97;;;5.50;1.00;;;;;;5058325;28;20541;-62
2023/04/13 00:33:23;;;;;;;2.33;1.60;;;5.60;1.00;;;;;;5058168;28;20728;-59
2023/04/13 00:35:51;;;;;;;2.87;1.70;;;5.70;1.00;;;;;;5057970;28;20484;-61
2023/04/13 00:38:22;;;;;;;3.03;1.57;;;5.80;1.00;;;;;;5057362;28;20466;-59
2023/04/13 00:40:50;;;;;;;3.37;1.80;;;5.90;1.00;;;;;;5057459;28;20462;-60
2023/04/13 00:43:18;;;;;;;2.17;1.70;;;5.90;1.00;;;;;;5060798;28;20837;-59
2023/04/13 00:45:46;;;;;;;2.40;1.60;;;6.00;1.00;;;;;;5060995;28;20996;-62
2023/04/13 00:48:14;;;;;;;3.07;1.70;;;5.90;1.00;;;;;;5060210;28;20473;-63
2023/04/13 00:50:43;;;;;;;4.43;1.70;;;6.00;1.00;;;;;;5060498;28;20466;-62
2023/04/13 00:53:12;;;;;;;2.83;1.80;;;6.00;1.00;;;;;;5060663;28;20471;-63
2023/04/13 00:55:40;;;;;;;4.50;1.87;;;6.10;1.00;;;;;;5060259;28;20465;-60
2023/04/13 00:58:08;;;;;;;4.33;1.80;;;6.10;1.00;;;;;;5060439;28;20946;-63
2023/04/13 01:00:38;;;;;;;3.73;1.60;;;6.10;1.00;;;;;;5060288;28;20462;-62
2023/04/13 01:03:05;;;;;;;3.40;1.70;;;6.10;1.00;;;;;;5060309;28;20462;-63
2023/04/13 01:05:40;;;;;;;2.83;1.40;;;6.10;1.00;;;;;;5060233;28;20472;-63
2023/04/13 01:08:20;;;;;;;5.73;1.70;;;6.10;1.00;;;;;;5060018;28;20465;-63
2023/04/13 01:10:54;;;;;;;2.77;1.80;;;6.10;1.00;;;;;;5059725;28;20461;-63
2023/04/13 01:13:24;;;;;;;3.80;1.70;;;6.10;1.00;;;;;;5059940;28;20447;-63
2023/04/13 01:16:00;;;;;;;3.40;1.80;;;6.10;1.00;;;;;;5059570;28;20497;-64
2023/04/13 01:18:29;;;;;;;3.37;1.70;;;6.10;1.00;;;;;;5059817;28;20468;-64
2023/04/13 01:20:59;;;;;;;6.73;1.73;;;6.00;1.00;;;;;;5060136;28;20801;-65
2023/04/13 01:23:35;;;;;;;3.10;2.00;;;6.00;1.00;;;;;;5060327;28;20480;-63
2023/04/13 01:26:07;;;;;;;3.50;1.50;;;6.00;1.00;;;;;;5056389;28;20972;-64
2023/04/13 01:28:38;;;;;;;4.43;1.90;;;6.00;1.00;;;;;;5058628;28;20474;-65
2023/04/13 01:31:10;;;;;;;3.60;2.10;;;6.00;1.00;;;;;;5058797;28;20847;-62
2023/04/13 01:33:39;;;;;;;2.70;1.40;;;5.90;1.00;;;;;;5058631;28;20481;-61
2023/04/13 01:36:08;;;;;;;2.13;1.33;;;5.90;1.00;;;;;;5057895;28;20474;-62
2023/04/13 01:38:36;;;;;;;3.40;1.73;;;5.90;1.00;;;;;;5059728;28;20549;-65
2023/04/13 01:41:03;;;;;;;4.33;1.90;;;5.90;1.00;;;;;;5056893;28;20935;-64
2023/04/13 01:43:31;;;;;;;3.93;1.70;;;5.90;1.00;;;;;;5059538;28;20498;-59
2023/04/13 01:46:04;;;;;;;3.33;1.80;;;5.90;1.00;;;;;;5057673;28;20534;-62
2023/04/13 01:48:36;;;;;;;3.77;1.70;;;5.90;1.00;;;;;;5059276;28;20914;-57
2023/04/13 01:51:09;;;;;;;2.83;1.73;;;5.90;1.00;;;;;;5059532;28;20909;-60
2023/04/13 01:53:40;;;;;;;3.63;1.60;;;6.00;1.00;;;;;;5058689;28;20458;-64
2023/04/13 01:56:08;;;;;;;3.10;1.73;;;6.00;1.00;;;;;;5059253;28;20535;-63
2023/04/13 01:58:39;;;;;;;4.13;1.70;;;6.00;1.00;;;;;;5059351;28;20494;-62
2023/04/13 02:01:08;;;;;;;3.77;1.60;;;6.00;1.00;;;;;;5059778;28;20897;-64
2023/04/13 02:03:37;;;;;;;4.00;2.00;;;6.00;1.00;;;;;;5059245;28;20463;-63
2023/04/13 02:06:06;;;;;;;4.20;2.13;;;6.00;1.00;;;;;;5058537;28;20494;-63
2023/04/13 02:08:33;;;;;;;2.83;1.70;;;6.00;1.00;;;;;;5059006;28;20462;-63
2023/04/13 02:11:02;;;;;;;5.50;1.90;;;6.00;1.00;;;;;;5059270;28;20468;-63
2023/04/13 02:13:29;;;;;;;7.63;2.33;;;6.00;1.00;;;;;;5058595;28;20491;-64
2023/04/13 02:15:57;;;;;;;4.20;2.00;;;6.10;1.00;;;;;;5058528;28;20545;-60
2023/04/13 02:18:26;;;;;;;4.77;1.87;;;6.10;1.00;;;;;;5058999;28;20501;-56
2023/04/13 02:21:02;;;;;;;4.37;2.07;;;6.10;1.00;;;;;;5058606;28;20563;-57
2023/04/13 02:23:30;;;;;;;4.00;1.70;;;6.20;1.00;;;;;;5058727;28;20475;-61
2023/04/13 02:25:57;;;;;;;2.33;1.53;;;6.10;1.00;;;;;;5058548;28;20722;-61
2023/04/13 02:28:25;;;;;;;4.07;1.90;;;6.20;1.00;;;;;;5058512;28;20572;-63
2023/04/13 02:31:43;;;;;;;3.20;1.60;;;6.20;1.00;;;;;;5058416;28;20457;-61
2023/04/13 02:34:12;;;;;;;4.70;1.60;;;6.30;1.00;;;;;;5057472;28;20469;-59
2023/04/13 02:36:39;;;;;;;3.47;1.60;;;6.30;1.00;;;;;;5057959;28;20462;-62
2023/04/13 02:39:07;;;;;;;4.47;1.43;;;6.30;1.00;;;;;;5057437;28;20775;-59
2023/04/13 02:41:34;;;;;;;3.77;1.83;;;6.30;1.00;;;;;;5056235;28;20482;-60
2023/04/13 02:44:01;;;;;;;3.97;1.50;;;6.30;99.90;;;;;;5056386;28;20987;-61
2023/04/13 02:46:28;;;;;;;4.60;1.90;;;6.30;99.90;;;;;;5058174;28;20482;-61
2023/04/13 02:48:55;;;;;;;4.10;1.47;;;6.40;1.00;;;;;;5058277;28;20489;-59
2023/04/13 02:51:24;;;;;;;2.60;1.43;;;6.30;1.00;;;;;;5058309;28;20720;-60
2023/04/13 02:53:51;;;;;;;4.30;1.43;;;6.30;1.00;;;;;;5057985;28;20484;-61
2023/04/13 02:56:21;;;;;;;4.00;1.90;;;6.30;1.00;;;;;;5058026;28;20466;-63
2023/04/13 02:58:48;;;;;;;2.50;1.50;;;6.20;1.00;;;;;;5057801;28;20789;-63
2023/04/13 03:01:16;;;;;;;3.30;1.57;;;6.20;1.00;;;;;;5058454;28;20909;-63
2023/04/13 03:03:44;;;;;;;6.17;4.37;;;6.10;1.00;;;;;;5056330;28;20469;-62
2023/04/13 03:06:12;;;;;;;3.57;1.70;;;6.10;1.00;;;;;;5056467;28;20462;-62
2023/04/13 03:08:43;;;;;;;2.20;1.47;;;6.10;1.00;;;;;;5056647;28;20450;-63
2023/04/13 03:11:11;;;;;;;5.50;2.30;;;6.10;1.00;;;;;;5054141;28;20481;-64
2023/04/13 03:13:38;;;;;;;2.53;1.80;;;6.10;1.00;;;;;;5056336;28;20537;-64
2023/04/13 03:16:06;;;;;;;5.07;1.50;;;6.10;1.00;;;;;;5056077;28;20938;-63
2023/04/13 03:18:33;;;;;;;3.20;1.70;;;6.10;1.00;;;;;;5056229;28;20458;-63
2023/04/13 03:21:01;;;;;;;3.90;1.50;;;6.00;1.00;;;;;;5056253;28;20475;-63
2023/04/13 03:23:29;;;;;;;4.43;1.90;;;6.10;1.00;;;;;;5056643;28;20528;-61
2023/04/13 03:25:57;;;;;;;5.43;1.70;;;6.10;1.00;;;;;;5056004;28;20463;-59
2023/04/13 03:28:25;;;;;;;3.00;1.77;;;6.10;1.00;;;;;;5056354;28;20490;-61
2023/04/13 03:30:52;;;;;;;4.17;1.80;;;6.10;1.00;;;;;;5055943;28;20497;-64
2023/04/13 03:33:19;;;;;;;2.43;1.50;;;6.10;1.00;;;;;;5056234;28;20521;-62
2023/04/13 03:35:47;;;;;;;2.90;1.70;;;6.10;1.00;;;;;;5056335;28;20465;-62
2023/04/13 03:38:14;;;;;;;3.53;1.80;;;6.20;1.00;;;;;;5056058;28;20456;-59
2023/04/13 03:40:41;;;;;;;3.80;2.20;;;6.20;1.00;;;;;;5054241;28;20470;-64
2023/04/13 03:43:10;;;;;;;2.37;1.50;;;6.20;1.00;;;;;;5056402;28;20556;-63
2023/04/13 03:45:37;;;;;;;2.40;1.50;;;6.20;1.00;;;;;;5055874;28;20462;-60
2023/04/13 03:48:05;;;;;;;2.77;1.50;;;6.20;1.00;;;;;;5056908;28;20588;-61
2023/04/13 03:50:35;;;;;;;2.67;1.67;;;6.30;1.00;;;;;;5057153;28;20740;-63
2023/04/13 03:53:03;;;;;;;2.40;1.47;;;6.30;1.00;;;;;;5057481;28;20552;-61
2023/04/13 03:55:30;;;;;;;4.77;2.17;;;6.30;1.00;;;;;;5057256;28;20759;-60
2023/04/13 03:57:57;;;;;;;3.87;1.37;;;6.30;1.00;;;;;;5056988;28;20557;-61
2023/04/13 04:00:26;;;;;;;6.33;1.80;;;6.20;1.00;;;;;;5056928;28;20907;-57
2023/04/13 04:02:53;;;;;;;3.50;1.57;;;6.20;1.00;;;;;;5057469;28;20469;-63
2023/04/13 04:05:22;;;;;;;2.53;1.67;;;6.30;1.00;;;;;;5057560;28;20493;-61
2023/04/13 04:07:49;;;;;;;3.73;1.70;;;6.30;1.00;;;;;;5056419;28;20497;-57
2023/04/13 04:10:18;;;;;;;4.10;1.60;;;6.40;1.00;;;;;;5057344;28;20486;-62
2023/04/13 04:12:45;;;;;;;3.10;1.77;;;6.30;1.00;;;;;;5057007;28;20447;-62
2023/04/13 04:15:16;;;;;;;2.23;1.57;;;6.30;1.00;;;;;;5057393;28;20462;-61
2023/04/13 04:17:44;;;;;;;2.57;1.57;;;6.30;1.00;;;;;;5060659;28;20458;-61
2023/04/13 04:20:13;;;;;;;2.40;1.60;;;6.30;1.00;;;;;;5060794;28;20572;-58
2023/04/13 04:22:40;;;;;;;3.10;1.67;;;6.30;1.00;;;;;;5060899;28;20466;-61
2023/04/13 04:25:08;;;;;;;3.50;1.67;;;6.20;1.00;;;;;;5060966;28;20941;-62
2023/04/13 04:27:37;;;;;;;2.17;1.53;;;6.20;1.00;;;;;;5060936;28;20518;-63
2023/04/13 04:30:05;;;;;;;3.30;1.90;;;6.10;1.00;;;;;;5060084;28;20490;-64
2023/04/13 04:32:33;;;;;;;8.70;1.60;;;6.10;1.00;;;;;;5060413;28;20466;-62
2023/04/13 04:35:02;;;;;;;3.20;2.13;;;6.10;1.00;;;;;;5060901;28;20448;-63
2023/04/13 04:37:36;;;;;;;4.20;1.80;;;6.10;1.00;;;;;;5060523;28;20479;-63
2023/04/13 04:40:08;;;;;;;2.37;1.70;;;6.10;1.00;;;;;;5060470;28;20771;-59
2023/04/13 04:42:36;;;;;;;2.67;1.80;;;6.10;1.00;;;;;;5058314;28;20484;-62
2023/04/13 04:45:03;;;;;;;3.37;1.80;;;6.10;1.00;;;;;;5060163;28;20474;-61
2023/04/13 04:47:31;;;;;;;3.10;1.80;;;6.00;1.00;;;;;;5060628;28;20501;-62
2023/04/13 04:50:00;;;;;;;4.70;1.80;;;6.00;1.00;;;;;;5059980;28;20516;-65
2023/04/13 04:52:31;;;;;;;3.07;2.03;;;6.00;1.00;;;;;;5059705;28;20504;-64
2023/04/13 04:54:59;;;;;;;4.83;1.90;;;6.00;1.00;;;;;;5060548;28;20805;-64
2023/04/13 04:57:26;;;;;;;2.50;1.80;;;6.00;1.00;;;;;;5059843;28;20432;-64
2023/04/13 04:59:54;;;;;;;3.00;2.00;;;6.00;1.00;;;;;;5059459;28;20501;-65
2023/04/13 05:02:21;;;;;;;3.63;2.20;;;6.00;1.00;;;;;;5059930;28;20526;-65
2023/04/13 05:04:48;;;;;;;3.77;2.27;;;6.10;1.00;;;;;;5060319;28;20468;-63
2023/04/13 05:07:17;;;;;;;5.73;2.27;;;6.10;1.00;;;;;;5060440;28;20828;-59
2023/04/13 05:09:46;;;;;;;3.47;2.00;;;6.10;1.00;;;;;;5077409;28;21040;-63
2023/04/13 05:12:14;;;;;;;3.70;2.50;;;6.10;1.00;;;;;;5079273;28;20496;-62
2023/04/13 05:14:41;;;;;;;3.10;2.03;;;6.10;1.00;;;;;;5079566;28;20495;-62
2023/04/13 05:17:08;;;;;;;4.00;2.20;;;6.10;1.00;;;;;;5080146;28;20836;-63
2023/04/13 05:19:40;;;;;;;4.33;2.70;;;6.20;1.00;;;;;;5080114;28;20931;-61
2023/04/13 05:22:07;;;;;;;4.80;2.83;;;6.20;1.00;;;;;;5079880;28;20461;-59
2023/04/13 05:24:34;;;;;;;5.50;2.50;;;6.20;1.00;;;;;;5076080;28;20965;-61
2023/04/13 05:27:03;;;;;;;2.90;2.60;;;6.20;1.00;;;;;;5071228;28;20473;-62
2023/04/13 05:29:32;;;;;;;4.40;2.30;;;6.30;1.00;;;;;;5065422;28;20568;-60
2023/04/13 05:32:00;;;;;;;2.83;2.40;;;6.30;1.00;;;;;;5058760;28;20561;-62
2023/04/13 05:34:27;;;;;;;3.50;2.87;;;6.30;1.00;;;;;;5059479;28;20467;-63
2023/04/13 05:36:55;;;;;;;3.57;2.90;;;6.40;1.00;;;;;;5058956;28;20507;-56
2023/04/13 05:39:23;;;;;;;4.50;2.87;;;6.40;1.00;;;;;;5059228;28;20473;-56
2023/04/13 05:41:50;;;;;;;4.80;3.17;;;6.40;1.00;;;;;;5058302;28;20463;-63
2023/04/13 05:44:19;;;;;;;6.90;2.83;;;6.50;1.00;;;;;;5059453;28;20568;-58
2023/04/13 05:46:47;;;;;;;4.33;2.50;;;6.50;1.00;;;;;;5059454;28;20564;-61
2023/04/13 05:49:14;;;;;;;4.47;2.40;;;6.60;1.00;;;;;;5059592;28;20501;-63
2023/04/13 05:51:41;;;;;;;2.90;2.53;;;6.60;1.00;;;;;;5059869;28;20462;-63
2023/04/13 05:54:09;;;;;;;3.43;2.73;;;6.50;1.00;;;;;;5058816;28;20512;-59
2023/04/13 05:56:36;;;;;;;3.60;2.70;;;6.50;1.00;;;;;;5057226;28;20475;-58
2023/04/13 05:59:03;;;;;;;3.50;2.80;;;6.50;1.00;;;;;;5052133;28;20460;-62
2023/04/13 06:01:33;;;;;;;4.57;2.80;;;6.50;1.00;;;;;;5039304;28;20503;-62
2023/04/13 06:04:01;;;;;;;4.30;2.90;;;6.50;1.00;;;;;;5038857;28;20467;-61
2023/04/13 06:06:29;;;;;;;3.83;2.80;;;6.60;1.00;;;;;;5038797;28;20462;-62
2023/04/13 06:08:56;;;;;;;5.30;3.70;;;6.60;1.00;;;;;;5037989;28;20503;-62
2023/04/13 06:11:25;;;;;;;7.17;3.30;;;6.60;1.00;;;;;;5038318;28;20566;-62
2023/04/13 06:13:52;;;;;;;4.90;2.57;;;6.60;1.00;;;;;;5038775;28;20472;-62
2023/04/13 06:16:20;;;;;;;6.07;3.00;;;6.60;1.00;;;;;;5038886;28;20525;-62
2023/04/13 06:18:49;;;;;;;4.60;3.00;;;6.70;1.00;;;;;;5039004;28;20467;-62
2023/04/13 06:21:16;;;;;;;4.97;3.23;;;6.70;1.00;;;;;;5038638;28;20505;-61
2023/04/13 06:23:43;;;;;;;3.00;2.60;;;6.80;1.00;;;;;;5039352;28;20739;-62
2023/04/13 06:26:10;;;;;;;5.33;3.50;;;6.80;1.00;;;;;;5038723;28;20463;-62
2023/04/13 06:28:38;;;;;;;4.17;3.17;;;6.70;1.00;;;;;;5038101;28;20494;-62
2023/04/13 06:31:06;;;;;;;5.20;3.00;;;6.80;1.00;;;;;;5038758;28;20950;-63
2023/04/13 06:33:33;;;;;;;5.17;3.77;;;6.80;1.00;;;;;;5038684;28;20474;-63
2023/04/13 06:36:02;;;;;;;5.20;3.07;;;6.90;1.00;;;;;;5038274;28;20557;-63
2023/04/13 06:38:29;;;;;;;3.60;3.23;;;7.00;1.00;;;;;;5038957;28;20506;-62
2023/04/13 06:41:01;;;;;;;5.07;3.60;;;7.00;1.00;;;;;;5054312;28;20448;-63
2023/04/13 06:43:29;;;;;;;7.33;3.60;;;7.10;1.00;;;;;;5056372;28;20471;-61
2023/04/13 06:46:00;;;;;;;3.73;2.90;;;7.10;1.00;;;;;;5057795;28;20462;-63
2023/04/13 06:48:27;;;;;;;6.53;3.60;;;7.20;1.00;;;;;;5056600;28;20493;-63
2023/04/13 06:50:56;;;;;;;5.40;3.10;;;7.20;1.00;;;;;;5058283;28;20532;-64
2023/04/13 06:53:25;;;;;;;4.20;3.27;;;7.30;1.00;;;;;;5058283;28;20462;-64
2023/04/13 06:55:52;;;;;;;3.50;2.83;;;7.30;1.00;;;;;;5057710;28;20461;-64
2023/04/13 06:58:20;;;;;;;5.03;3.07;;;7.30;1.00;;;;;;5056760;28;20880;-64
2023/04/13 07:00:47;;;;;;;4.30;3.10;;;7.30;1.00;;;;;;5058125;28;20516;-65
2023/04/13 07:03:15;;;;;;;6.03;3.30;;;7.20;1.00;;;;;;5058132;28;20885;-64
2023/04/13 07:05:43;;;;;;;4.30;2.90;;;7.20;1.00;;;;;;5057682;28;20533;-64
2023/04/13 07:08:11;;;;;;;3.30;2.83;;;7.20;1.00;;;;;;5057803;28;20501;-64
2023/04/13 07:10:40;;;;;;;4.83;3.03;;;7.20;1.00;;;;;;5057770;28;20473;-64
2023/04/13 07:13:07;;;;;;;5.57;3.40;;;7.20;1.00;;;;;;5058010;28;20462;-65
2023/04/13 07:15:37;;;;;;;4.67;3.50;;;7.20;1.00;;;;;;5057902;28;20441;-64
2023/04/13 07:18:04;;;;;;;3.50;2.97;;;7.20;1.00;;;;;;5056935;28;20876;-64
2023/04/13 07:20:33;;;;;;;7.33;4.97;;;7.20;1.00;;;;;;5057183;28;20473;-65
2023/04/13 07:23:01;;;;;;;7.20;3.20;;;7.20;1.00;;;;;;5057084;28;20857;-66
2023/04/13 07:25:28;;;;;;;4.17;3.00;;;7.30;1.00;;;;;;5056624;28;20502;-64
2023/04/13 07:27:57;;;;;;;4.70;3.37;;;7.60;1.00;;;;;;5055466;28;20508;-64
2023/04/13 07:30:25;;;;;;;5.17;2.67;;;8.00;1.00;;;;;;5055924;28;20589;-64
2023/04/13 07:32:53;;;;;;;4.50;2.73;;;8.40;99.90;;;;;;5056061;28;20520;-65
2023/04/13 07:35:20;;;;;;;3.90;2.80;;;8.70;99.90;;;;;;5055748;28;20461;-65
2023/04/13 07:37:48;;;;;;;3.53;2.37;;;9.00;99.90;;;;;;5056734;28;20472;-65
2023/04/13 07:40:16;;;;;;;4.30;3.00;;;9.10;99.90;;;;;;5056423;28;20462;-65
2023/04/13 07:42:44;;;;;;;4.40;2.70;;;9.10;99.90;;;;;;5055090;28;20796;-64
2023/04/13 07:45:14;;;;;;;4.30;2.77;;;9.10;99.90;;;;;;5056116;28;20462;-65
2023/04/13 07:47:41;;;;;;;5.10;2.70;;;9.20;99.90;;;;;;5055414;28;20777;-64
2023/04/13 07:50:09;;;;;;;4.27;2.63;;;9.00;99.90;;;;;;5054625;28;20699;-63
2023/04/13 07:52:36;;;;;;;2.80;2.40;;;8.90;99.90;;;;;;5054231;28;20464;-64
2023/04/13 07:55:04;;;;;;;2.77;2.40;;;8.90;99.90;;;;;;5039180;28;20484;-64
2023/04/13 07:57:32;;;;;;;3.30;2.00;;;8.90;99.90;;;;;;5037046;28;20520;-64
2023/04/13 07:59:59;;;;;;;3.10;2.57;;;9.00;99.90;;;;;;5035921;28;20459;-65
2023/04/13 08:02:28;;;;;;;4.57;2.57;;;8.80;99.90;;;;;;5039016;28;20559;-65
2023/04/13 08:04:55;;;;;;;3.13;2.17;;;8.60;99.90;;;;;;5054558;28;20454;-64
2023/04/13 08:07:22;;;;;;;3.10;2.30;;;8.40;99.90;;;;;;5055496;28;20496;-63
2023/04/13 08:09:51;;;;;;;3.40;2.53;;;8.30;99.90;;;;;;5054544;28;20585;-65
2023/04/13 08:12:18;;;;;;;3.67;2.67;;;8.30;99.90;;;;;;5054469;28;20464;-63
2023/04/13 08:14:45;;;;;;;6.60;2.43;;;8.30;99.90;;;;;;5054576;28;20498;-63
2023/04/13 08:17:13;;;;;;;3.73;2.40;;;8.20;99.90;;;;;;5054335;28;20501;-65
2023/04/13 08:19:41;;;;;;;4.63;2.90;;;8.10;99.90;;;;;;5054030;28;20458;-64
2023/04/13 08:22:10;;;;;;;4.23;2.47;;;8.20;99.90;;;;;;5054058;28;20505;-67
2023/04/13 08:24:37;;;;;;;3.97;3.20;;;8.10;99.90;;;;;;5054369;28;20437;-64
2023/04/13 08:27:07;;;;;;;2.67;2.37;;;8.00;99.90;;;;;;5053960;28;20462;-63
2023/04/13 08:29:34;;;;;;;4.13;3.33;;;7.90;99.90;;;;;;5054005;28;20911;-64
2023/04/13 08:32:01;;;;;;;5.50;2.90;;;7.80;99.90;;;;;;5055451;28;20462;-63
2023/04/13 08:34:28;;;;;;;3.63;2.53;;;7.90;99.90;;;;;;5055438;28;20458;-63
2023/04/13 08:36:57;;;;;;;6.13;4.10;;;7.80;99.90;;;;;;5054946;28;20463;-63
2023/04/13 08:39:24;;;;;;;4.17;2.60;;;7.90;99.90;;;;;;5055607;28;20462;-62
2023/04/13 08:41:52;;;;;;;3.23;2.30;;;7.80;99.90;;;;;;5055452;28;20466;-63
2023/04/13 08:44:19;;;;;;;5.67;2.60;;;7.90;99.90;;;;;;5056795;28;20462;-63
2023/04/13 08:46:46;;;;;;;3.40;2.30;;;7.70;99.90;;;;;;5056457;28;20537;-63
2023/04/13 08:49:14;;;;;;;3.80;2.60;;;7.70;99.90;;;;;;5056884;28;20529;-62
2023/04/13 08:51:44;;;;;;;4.00;2.83;;;7.80;99.90;;;;;;5056290;28;20544;-62
2023/04/13 08:54:14;;;;;;;5.53;3.53;;;7.90;99.90;;;;;;5055564;28;20509;-62
2023/04/13 08:56:45;;;;;;;8.10;5.20;;;8.10;99.90;;;;;;5054984;28;20466;-62
2023/04/13 08:59:14;;;;;;;8.17;4.73;;;8.40;99.90;;;;;;5055917;28;20508;-62
2023/04/13 09:01:43;;;;;;;6.83;3.00;;;8.40;99.90;;;;;;5056963;28;20466;-62
2023/04/13 09:04:12;;;;;;;4.07;2.90;;;8.50;99.90;;;;;;5059812;28;20462;-62
2023/04/13 09:06:41;;;;;;;5.50;2.93;;;8.60;99.90;;;;;;5060308;28;20466;-62
2023/04/13 09:09:13;;;;;;;5.00;3.00;;;8.50;99.90;;;;;;5059802;28;20514;-62
2023/04/13 09:11:43;;;;;;;3.63;2.43;;;8.70;99.90;;;;;;5059681;28;20966;-60
2023/04/13 09:14:11;;;;;;;5.87;2.90;;;8.80;99.90;;;;;;5056794;28;20520;-62
2023/04/13 09:16:40;;;;;;;4.33;2.70;;;8.90;99.90;;;;;;5059822;28;20902;-62
2023/04/13 09:19:08;;;;;;;8.00;2.40;;;9.20;99.90;;;;;;5058822;28;20458;-62
2023/04/13 09:21:39;;;;;;;4.00;2.30;;;9.20;99.90;;;;;;5058805;28;20919;-62
2023/04/13 09:24:08;;;;;;;5.10;3.20;;;9.20;99.90;;;;;;5058480;28;20465;-62
2023/04/13 09:26:43;;;;;;;5.20;3.00;;;9.20;99.90;;;;;;5059416;28;20461;-62
2023/04/13 09:29:12;;;;;;;3.50;2.80;;;9.00;99.90;;;;;;5060053;28;20496;-63
2023/04/13 09:31:39;;;;;;;6.37;2.90;;;8.80;99.90;;;;;;5059709;28;20486;-62
2023/04/13 09:34:08;;;;;;;6.60;3.63;;;8.70;99.90;;;;;;5058438;28;20454;-63
2023/04/13 09:36:36;;;;;;;4.77;3.40;;;8.70;99.90;;;;;;5056908;28;20552;-63
2023/04/13 09:39:04;;;;;;;5.27;3.43;;;8.70;99.90;;;;;;5058100;28;20449;-63
2023/04/13 09:41:32;;;;;;;5.70;3.67;;;8.90;99.90;;;;;;5057898;28;20488;-63
2023/04/13 09:44:02;;;;;;;4.83;3.00;;;9.00;99.90;;;;;;5058788;28;20829;-62
2023/04/13 09:46:29;;;;;;;4.73;3.13;;;9.50;99.90;;;;;;5058708;28;20472;-62
2023/04/13 09:49:04;;;;;;;5.13;3.30;;;10.10;99.90;;;;;;5054392;28;20490;-63
2023/04/13 09:51:38;;;;;;;5.70;2.97;;;10.30;99.90;;;;;;5058009;28;20450;-62
2023/04/13 09:54:06;;;;;;;7.60;3.00;;;10.80;99.90;;;;;;5057820;28;20470;-62
2023/04/13 09:56:45;;;;;;;6.87;2.50;;;11.10;99.90;;;;;;5057031;28;20457;-62
2023/04/13 09:59:14;;;;;;;5.33;3.23;;;11.50;99.90;;;;;;5056771;28;20504;-63
2023/04/13 10:01:41;;;;;;;6.60;3.10;;;11.50;99.90;;;;;;5055639;28;20774;-61
2023/04/13 10:04:09;;;;;;;7.30;3.63;;;11.40;99.90;;;;;;5054259;28;20566;-62
2023/04/13 10:06:40;;;;;;;7.53;3.37;;;11.50;99.90;;;;;;5054751;28;20462;-62
2023/04/13 10:09:08;;;;;;;5.67;2.97;;;11.50;99.90;;;;;;5055771;28;20958;-59
2023/04/13 10:11:38;;;;;;;6.20;3.00;;;11.30;99.90;;;;;;5057745;28;20461;-63
2023/04/13 10:14:12;;;;;;;7.53;3.60;;;11.00;99.90;;;;;;5057802;28;20765;-62
2023/04/13 10:17:19;;;;;;;8.37;3.23;;;10.70;99.90;;;;;;5058946;28;20462;-62
2023/04/13 10:19:48;;;;;;;11.13;3.60;;;10.60;99.90;;;;;;5047233;28;20484;-61
2023/04/13 10:22:16;;;;;;;8.93;4.07;;;10.40;99.90;;;;;;5058175;28;20465;-61
2023/04/13 10:24:44;;;;;;;7.20;3.17;;;10.30;99.90;;;;;;5058406;28;20462;-62
2023/04/13 10:27:14;;;;;;;6.60;3.13;;;10.40;99.90;;;;;;5058852;28;20458;-61
2023/04/13 10:29:41;;;;;;;12.47;4.20;;;10.20;99.90;;;;;;5058772;28;20988;-63
2023/04/13 10:32:19;;;;;;;6.80;4.27;;;10.10;99.90;;;;;;5058293;28;20501;-61
2023/04/13 10:34:48;;;;;;;10.23;4.00;;;10.20;99.90;;;;;;5058545;28;20811;-60
2023/04/13 10:37:20;;;;;;;9.43;4.60;;;10.40;99.90;;;;;;5058432;28;20466;-62
2023/04/13 10:39:47;;;;;;;12.90;3.67;;;10.80;99.90;;;;;;5058703;28;20898;-60
2023/04/13 10:42:15;;;;;;;7.23;3.60;;;11.20;99.90;;;;;;5057702;28;20468;-63
2023/04/13 10:44:43;;;;;;;9.70;4.90;;;11.40;99.90;;;;;;5058258;28;20479;-63
2023/04/13 10:47:11;;;;;;;6.57;3.43;;;11.50;99.90;;;;;;5057016;28;20528;-63
2023/04/13 10:49:39;;;;;;;9.90;4.33;;;11.80;99.90;;;;;;5057602;28;20493;-63
2023/04/13 10:52:09;;;;;;;7.03;3.90;;;11.80;99.90;;;;;;5057984;28;20951;-63
2023/04/13 10:54:38;;;;;;;12.30;3.93;;;11.70;99.90;;;;;;5058146;28;20462;-63
2023/04/13 10:57:07;;;;;;;4.53;2.80;;;11.50;99.90;;;;;;5058086;28;20519;-63
2023/04/13 10:59:43;;;;;;;11.90;3.80;;;11.30;99.90;;;;;;5058424;28;20462;-63
2023/04/13 11:02:13;;;;;;;12.30;3.83;;;11.10;99.90;;;;;;5057355;28;20509;-63
2023/04/13 11:04:41;;;;;;;6.50;3.50;;;11.00;99.90;;;;;;5057295;28;20466;-63
2023/04/13 11:07:14;;;;;;;12.60;4.30;;;10.70;99.90;;;;;;5057803;28;20882;-63
2023/04/13 11:09:42;;;;;;;10.20;3.70;;;10.70;99.90;;;;;;5058130;28;20945;-63
2023/04/13 11:12:12;;;;;;;10.80;4.90;;;10.50;99.90;;;;;;5057680;28;20466;-60
2023/04/13 11:14:39;;;;;;;10.00;4.60;;;10.20;99.90;;;;;;5057514;28;20503;-62
2023/04/13 11:17:07;;;;;;;10.57;5.30;;;10.10;99.90;;;;;;5057788;28;20501;-61
2023/04/13 11:19:34;;;;;;;10.37;4.93;;;10.00;99.90;;;;;;5057318;28;20465;-64
2023/04/13 11:22:02;;;;;;;12.60;5.20;;;9.90;99.90;;;;;;5057256;28;20769;-63
2023/04/13 11:24:33;;;;;;;9.40;4.30;;;9.90;99.90;;;;;;5057303;28;20561;-64
2023/04/13 11:27:01;;;;;;;9.40;4.77;;;9.80;99.90;;;;;;5057491;28;20466;-63
2023/04/13 11:29:28;;;;;;;19.00;5.07;;;9.80;99.90;;;;;;5057792;28;20501;-64
2023/04/13 11:31:56;;;;;;;8.40;4.60;;;10.10;99.90;;;;;;5057701;28;20458;-63
2023/04/13 11:34:33;;;;;;;7.73;4.40;;;10.40;99.90;;;;;;5057767;28;20748;-63
2023/04/13 11:37:04;;;;;;;10.83;4.30;;;10.30;99.90;;;;;;5057781;28;20436;-63
2023/04/13 11:39:35;;;;;;;15.87;4.40;;;10.10;99.90;;;;;;5057578;28;20462;-61
2023/04/13 11:42:06;;;;;;;10.77;3.83;;;10.30;99.90;;;;;;5057593;28;20462;-64
2023/04/13 11:44:34;;;;;;;10.83;4.00;;;10.40;99.90;;;;;;5057462;28;20470;-65
2023/04/13 11:47:03;;;;;;;13.67;4.53;;;10.60;99.90;;;;;;5056806;28;20520;-65
2023/04/13 11:49:30;;;;;;;5.83;3.50;;;10.60;99.90;;;;;;5057196;28;20496;-65
2023/04/13 11:51:58;;;;;;;6.80;3.77;;;10.60;99.90;;;;;;5056832;28;20527;-65
2023/04/13 11:54:27;;;;;;;7.73;3.70;;;10.70;99.90;;;;;;5056488;28;20531;-65
2023/04/13 11:56:56;;;;;;;6.80;3.60;;;10.50;99.90;;;;;;5055745;28;20475;-65
2023/04/13 11:59:24;;;;;;;9.30;3.80;;;10.80;99.90;;;;;;5055612;28;20527;-65
2023/04/13 12:01:52;;;;;;;9.63;4.20;;;11.10;99.90;;;;;;5056554;28;20437;-63
2023/04/13 12:04:19;;;;;;;9.70;4.23;;;11.20;99.90;;;;;;5056345;28;20489;-64
2023/04/13 12:06:47;;;;;;;10.20;3.90;;;11.10;99.90;;;;;;5057077;28;20457;-64
2023/04/13 12:09:15;;;;;;;11.30;3.87;;;11.00;99.90;;;;;;5056782;28;20543;-65
2023/04/13 12:11:43;;;;;;;9.47;4.20;;;10.80;99.90;;;;;;5057093;28;20481;-65
2023/04/13 12:14:23;;;;;;;8.13;3.93;;;10.60;99.90;;;;;;5056875;28;20462;-67
2023/04/13 12:16:51;;;;;;;7.67;4.00;;;10.30;99.90;;;;;;5055697;28;20469;-65
2023/04/13 12:19:22;;;;;;;9.30;4.20;;;10.20;99.90;;;;;;5056747;28;20490;-66
2023/04/13 12:21:54;;;;;;;13.50;3.60;;;10.20;99.90;;;;;;5055794;28;20466;-66
2023/04/13 12:24:35;;;;;;;10.27;5.27;;;10.80;99.90;;;;;;5055451;28;20520;-65
2023/04/13 12:27:03;;;;;;;8.90;3.30;;;11.30;99.90;;;;;;5055056;28;20461;-65
2023/04/13 12:29:37;;;;;;;11.73;3.90;;;11.60;99.90;;;;;;5056155;28;20482;-65
2023/04/13 12:32:10;;;;;;;8.30;3.43;;;11.50;99.90;;;;;;5047069;28;20804;-64
2023/04/13 12:34:37;;;;;;;17.80;3.53;;;11.20;99.90;;;;;;5055726;28;20553;-69
2023/04/13 12:37:04;;;;;;;8.53;3.60;;;10.80;99.90;;;;;;5056471;28;20543;-67
2023/04/13 12:39:35;;;;;;;10.60;4.07;;;10.50;99.90;;;;;;5060473;28;20466;-68
2023/04/13 12:42:02;;;;;;;13.40;4.80;;;10.80;99.90;;;;;;5059269;28;20835;-68
2023/04/13 12:44:30;;;;;;;16.03;4.13;;;11.30;99.90;;;;;;5062350;28;20853;-67
2023/04/13 12:47:01;;;;;;;9.33;4.07;;;11.80;99.90;;;;;;5060387;28;20497;-66
2023/04/13 12:49:28;;;;;;;11.20;4.50;;;12.00;99.90;;;;;;5053467;28;20561;-66
2023/04/13 12:51:55;;;;;;;12.70;3.30;;;12.20;99.90;;;;;;5057062;28;20497;-67
2023/04/13 12:54:23;;;;;;;9.20;4.30;;;11.90;99.90;;;;;;5057770;28;20977;-66
2023/04/13 12:56:50;;;;;;;11.63;3.97;;;11.90;99.90;;;;;;5058613;28;20462;-66
2023/04/13 12:59:20;;;;;;;9.13;3.53;;;12.20;99.90;;;;;;5058127;28;20877;-64
2023/04/13 13:01:50;;;;;;;11.33;4.43;;;12.30;99.90;;;;;;5056815;28;20465;-65
2023/04/13 13:04:18;;;;;;;7.67;3.00;;;12.60;99.90;;;;;;5056941;28;20466;-64
2023/04/13 13:06:46;;;;;;;10.07;3.37;;;12.60;99.90;;;;;;5057470;28;20466;-63
2023/04/13 13:09:13;;;;;;;7.53;3.70;;;12.90;99.90;;;;;;5042929;28;20501;-66